sensor_id;sensor_type;location;lat;lon;timestamp;P1;durP1;ratioP1;P2;durP2;ratioP2
17141;SDS011;32805;53.556;9.944;2023-03-31T00:01:08;21.77;;;5.60;;
17141;SDS011;32805;53.556;9.944;2023-03-31T00:03:37;24.38;;;5.25;;
17141;SDS011;32805;53.556;9.944;2023-03-31T00:06:10;17.60;;;4.63;;
17141;SDS011;32805;53.556;9.944;2023-03-31T00:08:44;19.08;;;5.70;;
17141;SDS011;32805;53.556;9.944;2023-03-31T00:11:16;19.45;;;5.55;;
17141;SDS011;32805;53.556;9.944;2023-03-31T00:13:44;17.17;;;4.53;;
17141;SDS011;32805;53.556;9.944;2023-03-31T00:16:11;16.38;;;4.60;;
17141;SDS011;32805;53.556;9.944;2023-03-31T00:18:40;26.67;;;4.65;;
17141;SDS011;32805;53.556;9.944;2023-03-31T00:21:12;17.48;;;4.35;;
17141;SDS011;32805;53.556;9.944;2023-03-31T00:23:50;25.67;;;4.75;;
17141;SDS011;32805;53.556;9.944;2023-03-31T00:26:19;22.30;;;4.65;;
17141;SDS011;32805;53.556;9.944;2023-03-31T00:28:47;22.20;;;5.00;;
17141;SDS011;32805;53.556;9.944;2023-03-31T00:31:15;18.85;;;3.92;;
17141;SDS011;32805;53.556;9.944;2023-03-31T00:33:45;22.13;;;4.60;;
17141;SDS011;32805;53.556;9.944;2023-03-31T00:36:13;21.90;;;4.32;;
17141;SDS011;32805;53.556;9.944;2023-03-31T00:38:46;14.52;;;4.35;;
17141;SDS011;32805;53.556;9.944;2023-03-31T00:41:14;16.88;;;4.50;;
17141;SDS011;32805;53.556;9.944;2023-03-31T00:46:32;23.10;;;4.70;;
17141;SDS011;32805;53.556;9.944;2023-03-31T00:49:02;18.77;;;4.50;;
17141;SDS011;32805;53.556;9.944;2023-03-31T00:51:30;18.48;;;4.53;;
17141;SDS011;32805;53.556;9.944;2023-03-31T00:54:00;23.35;;;4.40;;
17141;SDS011;32805;53.556;9.944;2023-03-31T00:56:32;17.23;;;4.90;;
17141;SDS011;32805;53.556;9.944;2023-03-31T00:59:03;20.70;;;5.18;;
17141;SDS011;32805;53.556;9.944;2023-03-31T01:01:33;15.98;;;3.85;;
17141;SDS011;32805;53.556;9.944;2023-03-31T01:04:06;17.70;;;3.65;;
17141;SDS011;32805;53.556;9.944;2023-03-31T01:06:36;18.85;;;5.07;;
17141;SDS011;32805;53.556;9.944;2023-03-31T01:09:05;19.25;;;4.13;;
17141;SDS011;32805;53.556;9.944;2023-03-31T01:11:33;27.75;;;4.72;;
17141;SDS011;32805;53.556;9.944;2023-03-31T01:14:01;19.20;;;4.03;;
17141;SDS011;32805;53.556;9.944;2023-03-31T01:16:29;20.67;;;5.00;;
17141;SDS011;32805;53.556;9.944;2023-03-31T01:18:59;21.45;;;4.53;;
17141;SDS011;32805;53.556;9.944;2023-03-31T01:21:38;29.63;;;4.65;;
17141;SDS011;32805;53.556;9.944;2023-03-31T01:27:36;21.10;;;3.75;;
17141;SDS011;32805;53.556;9.944;2023-03-31T01:30:35;19.13;;;4.43;;
17141;SDS011;32805;53.556;9.944;2023-03-31T01:33:27;18.63;;;3.55;;
17141;SDS011;32805;53.556;9.944;2023-03-31T01:42:24;16.48;;;3.75;;
17141;SDS011;32805;53.556;9.944;2023-03-31T01:45:00;16.42;;;3.70;;
17141;SDS011;32805;53.556;9.944;2023-03-31T01:47:39;12.98;;;4.72;;
17141;SDS011;32805;53.556;9.944;2023-03-31T01:50:14;14.65;;;3.55;;
17141;SDS011;32805;53.556;9.944;2023-03-31T01:52:49;14.32;;;3.70;;
17141;SDS011;32805;53.556;9.944;2023-03-31T01:55:28;12.82;;;5.18;;
17141;SDS011;32805;53.556;9.944;2023-03-31T01:57:59;19.67;;;5.72;;
17141;SDS011;32805;53.556;9.944;2023-03-31T02:00:32;15.43;;;4.65;;
17141;SDS011;32805;53.556;9.944;2023-03-31T02:03:07;12.52;;;4.47;;
17141;SDS011;32805;53.556;9.944;2023-03-31T02:05:39;14.40;;;4.18;;
17141;SDS011;32805;53.556;9.944;2023-03-31T02:08:12;13.30;;;4.03;;
17141;SDS011;32805;53.556;9.944;2023-03-31T02:10:44;15.02;;;4.22;;
17141;SDS011;32805;53.556;9.944;2023-03-31T02:13:14;16.02;;;5.30;;
17141;SDS011;32805;53.556;9.944;2023-03-31T02:15:45;16.35;;;4.78;;
17141;SDS011;32805;53.556;9.944;2023-03-31T02:18:17;13.60;;;4.47;;
17141;SDS011;32805;53.556;9.944;2023-03-31T02:20:51;13.98;;;5.35;;
17141;SDS011;32805;53.556;9.944;2023-03-31T02:23:23;15.05;;;5.13;;
17141;SDS011;32805;53.556;9.944;2023-03-31T02:25:56;13.43;;;5.20;;
17141;SDS011;32805;53.556;9.944;2023-03-31T02:28:28;14.35;;;5.07;;
17141;SDS011;32805;53.556;9.944;2023-03-31T02:31:04;13.38;;;4.78;;
17141;SDS011;32805;53.556;9.944;2023-03-31T02:33:39;15.98;;;6.38;;
17141;SDS011;32805;53.556;9.944;2023-03-31T02:36:07;14.77;;;4.95;;
17141;SDS011;32805;53.556;9.944;2023-03-31T02:38:37;14.23;;;4.68;;
17141;SDS011;32805;53.556;9.944;2023-03-31T02:41:11;15.52;;;5.25;;
17141;SDS011;32805;53.556;9.944;2023-03-31T02:43:39;16.20;;;5.30;;
17141;SDS011;32805;53.556;9.944;2023-03-31T02:46:07;12.98;;;5.32;;
17141;SDS011;32805;53.556;9.944;2023-03-31T02:48:36;14.90;;;5.30;;
17141;SDS011;32805;53.556;9.944;2023-03-31T02:51:28;15.05;;;6.20;;
17141;SDS011;32805;53.556;9.944;2023-03-31T02:54:23;15.07;;;5.78;;
17141;SDS011;32805;53.556;9.944;2023-03-31T02:57:22;13.82;;;5.93;;
17141;SDS011;32805;53.556;9.944;2023-03-31T03:00:06;14.75;;;6.13;;
17141;SDS011;32805;53.556;9.944;2023-03-31T03:02:47;14.43;;;6.15;;
17141;SDS011;32805;53.556;9.944;2023-03-31T03:05:28;17.02;;;6.28;;
17141;SDS011;32805;53.556;9.944;2023-03-31T03:08:23;14.85;;;6.05;;
17141;SDS011;32805;53.556;9.944;2023-03-31T03:10:58;13.93;;;6.03;;
17141;SDS011;32805;53.556;9.944;2023-03-31T03:13:35;14.15;;;5.88;;
17141;SDS011;32805;53.556;9.944;2023-03-31T03:16:13;17.08;;;5.60;;
17141;SDS011;32805;53.556;9.944;2023-03-31T03:18:51;17.08;;;5.97;;
17141;SDS011;32805;53.556;9.944;2023-03-31T03:21:22;12.98;;;5.85;;
17141;SDS011;32805;53.556;9.944;2023-03-31T03:23:50;14.45;;;6.55;;
17141;SDS011;32805;53.556;9.944;2023-03-31T03:26:18;15.18;;;7.07;;
17141;SDS011;32805;53.556;9.944;2023-03-31T03:28:51;10.52;;;5.60;;
17141;SDS011;32805;53.556;9.944;2023-03-31T03:31:19;12.55;;;5.47;;
17141;SDS011;32805;53.556;9.944;2023-03-31T03:33:49;14.57;;;5.75;;
17141;SDS011;32805;53.556;9.944;2023-03-31T03:36:17;14.60;;;6.03;;
17141;SDS011;32805;53.556;9.944;2023-03-31T03:38:45;14.95;;;7.20;;
17141;SDS011;32805;53.556;9.944;2023-03-31T03:41:13;16.67;;;7.18;;
17141;SDS011;32805;53.556;9.944;2023-03-31T03:43:40;13.60;;;6.75;;
17141;SDS011;32805;53.556;9.944;2023-03-31T03:46:10;21.10;;;8.70;;
17141;SDS011;32805;53.556;9.944;2023-03-31T03:48:37;20.95;;;8.57;;
17141;SDS011;32805;53.556;9.944;2023-03-31T03:51:05;18.65;;;8.43;;
17141;SDS011;32805;53.556;9.944;2023-03-31T03:53:32;15.13;;;7.72;;
17141;SDS011;32805;53.556;9.944;2023-03-31T03:56:00;17.00;;;7.88;;
17141;SDS011;32805;53.556;9.944;2023-03-31T03:58:28;19.48;;;7.20;;
17141;SDS011;32805;53.556;9.944;2023-03-31T04:00:56;20.13;;;9.40;;
17141;SDS011;32805;53.556;9.944;2023-03-31T04:03:25;18.90;;;9.10;;
17141;SDS011;32805;53.556;9.944;2023-03-31T04:05:53;16.98;;;10.20;;
17141;SDS011;32805;53.556;9.944;2023-03-31T04:08:21;22.30;;;10.98;;
17141;SDS011;32805;53.556;9.944;2023-03-31T04:10:48;18.75;;;11.20;;
17141;SDS011;32805;53.556;9.944;2023-03-31T04:13:17;15.98;;;9.48;;
17141;SDS011;32805;53.556;9.944;2023-03-31T04:15:46;19.42;;;9.40;;
17141;SDS011;32805;53.556;9.944;2023-03-31T04:18:14;17.13;;;9.65;;
17141;SDS011;32805;53.556;9.944;2023-03-31T04:20:49;18.75;;;9.45;;
17141;SDS011;32805;53.556;9.944;2023-03-31T04:23:29;17.58;;;9.35;;
17141;SDS011;32805;53.556;9.944;2023-03-31T04:25:57;14.75;;;7.57;;
17141;SDS011;32805;53.556;9.944;2023-03-31T04:28:25;16.00;;;8.48;;
17141;SDS011;32805;53.556;9.944;2023-03-31T04:30:59;21.63;;;7.72;;
17141;SDS011;32805;53.556;9.944;2023-03-31T04:33:28;15.25;;;8.38;;
17141;SDS011;32805;53.556;9.944;2023-03-31T04:35:57;15.10;;;7.60;;
17141;SDS011;32805;53.556;9.944;2023-03-31T04:38:32;18.20;;;8.48;;
17141;SDS011;32805;53.556;9.944;2023-03-31T04:41:00;15.63;;;8.52;;
17141;SDS011;32805;53.556;9.944;2023-03-31T04:43:28;21.55;;;9.60;;
17141;SDS011;32805;53.556;9.944;2023-03-31T04:45:55;17.65;;;8.55;;
17141;SDS011;32805;53.556;9.944;2023-03-31T04:48:23;17.00;;;8.35;;
17141;SDS011;32805;53.556;9.944;2023-03-31T04:50:51;17.38;;;8.57;;
17141;SDS011;32805;53.556;9.944;2023-03-31T04:53:20;13.30;;;7.50;;
17141;SDS011;32805;53.556;9.944;2023-03-31T04:55:48;16.58;;;8.27;;
17141;SDS011;32805;53.556;9.944;2023-03-31T04:58:15;15.45;;;8.50;;
17141;SDS011;32805;53.556;9.944;2023-03-31T05:00:43;12.88;;;8.15;;
17141;SDS011;32805;53.556;9.944;2023-03-31T05:03:11;15.57;;;8.70;;
17141;SDS011;32805;53.556;9.944;2023-03-31T05:05:39;17.77;;;7.85;;
17141;SDS011;32805;53.556;9.944;2023-03-31T05:08:06;17.95;;;8.13;;
17141;SDS011;32805;53.556;9.944;2023-03-31T05:10:35;18.05;;;8.32;;
17141;SDS011;32805;53.556;9.944;2023-03-31T05:13:03;13.50;;;7.60;;
17141;SDS011;32805;53.556;9.944;2023-03-31T05:15:31;15.75;;;7.55;;
17141;SDS011;32805;53.556;9.944;2023-03-31T05:18:00;16.50;;;7.47;;
17141;SDS011;32805;53.556;9.944;2023-03-31T05:20:28;15.48;;;7.57;;
17141;SDS011;32805;53.556;9.944;2023-03-31T05:22:55;16.58;;;7.47;;
17141;SDS011;32805;53.556;9.944;2023-03-31T05:25:23;14.77;;;7.38;;
17141;SDS011;32805;53.556;9.944;2023-03-31T05:27:55;13.82;;;7.18;;
17141;SDS011;32805;53.556;9.944;2023-03-31T05:30:23;32.15;;;9.93;;
17141;SDS011;32805;53.556;9.944;2023-03-31T05:32:51;13.25;;;7.25;;
17141;SDS011;32805;53.556;9.944;2023-03-31T05:35:19;15.88;;;8.13;;
17141;SDS011;32805;53.556;9.944;2023-03-31T05:37:47;15.82;;;7.80;;
17141;SDS011;32805;53.556;9.944;2023-03-31T05:40:15;18.77;;;7.75;;
17141;SDS011;32805;53.556;9.944;2023-03-31T05:42:43;14.90;;;6.88;;
17141;SDS011;32805;53.556;9.944;2023-03-31T05:45:12;17.40;;;8.75;;
17141;SDS011;32805;53.556;9.944;2023-03-31T05:47:39;14.13;;;7.35;;
17141;SDS011;32805;53.556;9.944;2023-03-31T05:50:08;17.75;;;7.95;;
17141;SDS011;32805;53.556;9.944;2023-03-31T05:52:39;16.27;;;7.22;;
17141;SDS011;32805;53.556;9.944;2023-03-31T05:55:07;13.68;;;6.60;;
17141;SDS011;32805;53.556;9.944;2023-03-31T05:57:36;14.55;;;7.22;;
17141;SDS011;32805;53.556;9.944;2023-03-31T06:00:03;14.15;;;6.47;;
17141;SDS011;32805;53.556;9.944;2023-03-31T06:02:37;11.50;;;6.00;;
17141;SDS011;32805;53.556;9.944;2023-03-31T06:05:06;16.60;;;6.95;;
17141;SDS011;32805;53.556;9.944;2023-03-31T06:07:34;13.30;;;6.90;;
17141;SDS011;32805;53.556;9.944;2023-03-31T06:10:02;14.55;;;7.65;;
17141;SDS011;32805;53.556;9.944;2023-03-31T06:12:33;13.02;;;6.93;;
17141;SDS011;32805;53.556;9.944;2023-03-31T06:15:00;12.52;;;6.38;;
17141;SDS011;32805;53.556;9.944;2023-03-31T06:17:28;14.80;;;7.07;;
17141;SDS011;32805;53.556;9.944;2023-03-31T06:19:57;12.77;;;6.60;;
17141;SDS011;32805;53.556;9.944;2023-03-31T06:22:25;13.73;;;6.35;;
17141;SDS011;32805;53.556;9.944;2023-03-31T06:24:53;13.23;;;6.97;;
17141;SDS011;32805;53.556;9.944;2023-03-31T06:27:20;10.50;;;5.65;;
17141;SDS011;32805;53.556;9.944;2023-03-31T06:29:48;17.90;;;6.82;;
17141;SDS011;32805;53.556;9.944;2023-03-31T06:32:16;8.40;;;5.47;;
17141;SDS011;32805;53.556;9.944;2023-03-31T06:34:43;13.13;;;6.40;;
17141;SDS011;32805;53.556;9.944;2023-03-31T06:37:12;13.18;;;5.93;;
17141;SDS011;32805;53.556;9.944;2023-03-31T06:39:40;15.68;;;6.50;;
17141;SDS011;32805;53.556;9.944;2023-03-31T06:42:09;10.77;;;5.47;;
17141;SDS011;32805;53.556;9.944;2023-03-31T06:44:39;12.38;;;5.85;;
17141;SDS011;32805;53.556;9.944;2023-03-31T06:47:07;14.40;;;6.00;;
17141;SDS011;32805;53.556;9.944;2023-03-31T06:49:34;15.98;;;5.80;;
17141;SDS011;32805;53.556;9.944;2023-03-31T06:52:02;13.27;;;6.40;;
17141;SDS011;32805;53.556;9.944;2023-03-31T06:54:31;9.10;;;4.95;;
17141;SDS011;32805;53.556;9.944;2023-03-31T06:56:59;9.80;;;6.05;;
17141;SDS011;32805;53.556;9.944;2023-03-31T06:59:27;12.70;;;6.45;;
17141;SDS011;32805;53.556;9.944;2023-03-31T07:01:54;9.95;;;5.07;;
17141;SDS011;32805;53.556;9.944;2023-03-31T07:04:22;13.57;;;6.22;;
17141;SDS011;32805;53.556;9.944;2023-03-31T07:06:50;14.85;;;5.90;;
17141;SDS011;32805;53.556;9.944;2023-03-31T07:09:17;11.35;;;6.13;;
17141;SDS011;32805;53.556;9.944;2023-03-31T07:11:49;10.27;;;5.22;;
17141;SDS011;32805;53.556;9.944;2023-03-31T07:14:16;11.13;;;5.28;;
17141;SDS011;32805;53.556;9.944;2023-03-31T07:16:44;9.20;;;5.22;;
17141;SDS011;32805;53.556;9.944;2023-03-31T07:19:12;15.43;;;6.05;;
17141;SDS011;32805;53.556;9.944;2023-03-31T07:21:40;12.07;;;5.10;;
17141;SDS011;32805;53.556;9.944;2023-03-31T07:24:08;8.65;;;5.03;;
17141;SDS011;32805;53.556;9.944;2023-03-31T07:26:36;11.43;;;5.20;;
17141;SDS011;32805;53.556;9.944;2023-03-31T07:29:05;9.00;;;4.85;;
17141;SDS011;32805;53.556;9.944;2023-03-31T07:31:32;10.90;;;4.53;;
17141;SDS011;32805;53.556;9.944;2023-03-31T07:34:00;10.80;;;4.82;;
17141;SDS011;32805;53.556;9.944;2023-03-31T07:36:29;9.57;;;4.85;;
17141;SDS011;32805;53.556;9.944;2023-03-31T07:38:57;7.97;;;3.90;;
17141;SDS011;32805;53.556;9.944;2023-03-31T07:41:24;7.68;;;3.95;;
17141;SDS011;32805;53.556;9.944;2023-03-31T07:43:52;8.50;;;4.35;;
17141;SDS011;32805;53.556;9.944;2023-03-31T07:46:22;11.57;;;4.00;;
17141;SDS011;32805;53.556;9.944;2023-03-31T07:48:51;6.93;;;3.92;;
17141;SDS011;32805;53.556;9.944;2023-03-31T07:51:20;11.88;;;4.30;;
17141;SDS011;32805;53.556;9.944;2023-03-31T07:53:50;7.55;;;3.92;;
17141;SDS011;32805;53.556;9.944;2023-03-31T07:56:19;7.70;;;3.65;;
17141;SDS011;32805;53.556;9.944;2023-03-31T07:58:48;7.43;;;3.70;;
17141;SDS011;32805;53.556;9.944;2023-03-31T08:01:22;5.38;;;4.15;;
17141;SDS011;32805;53.556;9.944;2023-03-31T08:03:51;8.48;;;4.72;;
17141;SDS011;32805;53.556;9.944;2023-03-31T08:06:20;8.90;;;4.43;;
17141;SDS011;32805;53.556;9.944;2023-03-31T08:08:49;7.95;;;4.10;;
17141;SDS011;32805;53.556;9.944;2023-03-31T08:11:17;7.60;;;4.15;;
17141;SDS011;32805;53.556;9.944;2023-03-31T08:13:46;8.02;;;4.65;;
17141;SDS011;32805;53.556;9.944;2023-03-31T08:16:14;7.38;;;4.03;;
17141;SDS011;32805;53.556;9.944;2023-03-31T08:18:44;9.60;;;4.28;;
17141;SDS011;32805;53.556;9.944;2023-03-31T08:21:11;7.85;;;4.60;;
17141;SDS011;32805;53.556;9.944;2023-03-31T08:23:39;7.93;;;4.05;;
17141;SDS011;32805;53.556;9.944;2023-03-31T08:26:07;6.07;;;4.25;;
17141;SDS011;32805;53.556;9.944;2023-03-31T08:28:37;11.40;;;4.97;;
17141;SDS011;32805;53.556;9.944;2023-03-31T08:31:04;13.50;;;4.78;;
17141;SDS011;32805;53.556;9.944;2023-03-31T08:33:33;9.38;;;5.53;;
17141;SDS011;32805;53.556;9.944;2023-03-31T08:36:03;8.77;;;4.60;;
17141;SDS011;32805;53.556;9.944;2023-03-31T08:38:34;5.68;;;4.10;;
17141;SDS011;32805;53.556;9.944;2023-03-31T08:41:05;6.10;;;3.70;;
17141;SDS011;32805;53.556;9.944;2023-03-31T08:43:43;4.50;;;3.17;;
17141;SDS011;32805;53.556;9.944;2023-03-31T08:46:14;8.35;;;3.47;;
17141;SDS011;32805;53.556;9.944;2023-03-31T08:48:44;8.52;;;3.40;;
17141;SDS011;32805;53.556;9.944;2023-03-31T08:51:16;4.20;;;3.22;;
17141;SDS011;32805;53.556;9.944;2023-03-31T08:53:48;6.22;;;3.20;;
17141;SDS011;32805;53.556;9.944;2023-03-31T08:56:21;6.30;;;3.13;;
17141;SDS011;32805;53.556;9.944;2023-03-31T08:58:52;3.63;;;3.00;;
17141;SDS011;32805;53.556;9.944;2023-03-31T09:01:23;6.15;;;2.78;;
17141;SDS011;32805;53.556;9.944;2023-03-31T09:04:21;4.47;;;3.20;;
17141;SDS011;32805;53.556;9.944;2023-03-31T09:07:02;6.65;;;3.22;;
17141;SDS011;32805;53.556;9.944;2023-03-31T09:09:38;5.05;;;2.92;;
17141;SDS011;32805;53.556;9.944;2023-03-31T09:12:18;6.13;;;2.90;;
17141;SDS011;32805;53.556;9.944;2023-03-31T09:14:49;6.18;;;2.40;;
17141;SDS011;32805;53.556;9.944;2023-03-31T09:17:25;3.05;;;2.20;;
17141;SDS011;32805;53.556;9.944;2023-03-31T09:19:56;4.10;;;3.03;;
17141;SDS011;32805;53.556;9.944;2023-03-31T09:22:29;7.40;;;4.15;;
17141;SDS011;32805;53.556;9.944;2023-03-31T09:25:00;4.97;;;3.20;;
17141;SDS011;32805;53.556;9.944;2023-03-31T09:27:32;2.78;;;2.33;;
17141;SDS011;32805;53.556;9.944;2023-03-31T09:30:03;4.63;;;2.60;;
17141;SDS011;32805;53.556;9.944;2023-03-31T09:32:37;6.45;;;2.63;;
17141;SDS011;32805;53.556;9.944;2023-03-31T09:35:12;4.25;;;2.67;;
17141;SDS011;32805;53.556;9.944;2023-03-31T09:37:44;5.47;;;2.83;;
17141;SDS011;32805;53.556;9.944;2023-03-31T09:40:14;4.60;;;2.20;;
17141;SDS011;32805;53.556;9.944;2023-03-31T09:42:43;3.72;;;2.13;;
17141;SDS011;32805;53.556;9.944;2023-03-31T09:45:15;2.90;;;2.15;;
17141;SDS011;32805;53.556;9.944;2023-03-31T09:47:45;3.65;;;2.50;;
17141;SDS011;32805;53.556;9.944;2023-03-31T09:50:16;6.22;;;3.10;;
17141;SDS011;32805;53.556;9.944;2023-03-31T09:52:52;3.85;;;2.58;;
17141;SDS011;32805;53.556;9.944;2023-03-31T09:55:23;3.83;;;2.67;;
17141;SDS011;32805;53.556;9.944;2023-03-31T09:58:05;4.05;;;2.75;;
17141;SDS011;32805;53.556;9.944;2023-03-31T10:00:34;6.00;;;2.67;;
17141;SDS011;32805;53.556;9.944;2023-03-31T10:03:02;4.95;;;2.45;;
17141;SDS011;32805;53.556;9.944;2023-03-31T10:05:34;6.03;;;3.38;;
17141;SDS011;32805;53.556;9.944;2023-03-31T10:10:53;9.70;;;3.33;;
17141;SDS011;32805;53.556;9.944;2023-03-31T10:13:22;6.57;;;3.35;;
17141;SDS011;32805;53.556;9.944;2023-03-31T10:15:52;4.82;;;2.70;;
17141;SDS011;32805;53.556;9.944;2023-03-31T10:18:21;4.57;;;2.67;;
17141;SDS011;32805;53.556;9.944;2023-03-31T10:21:00;4.50;;;2.92;;
17141;SDS011;32805;53.556;9.944;2023-03-31T10:23:31;2.97;;;2.65;;
17141;SDS011;32805;53.556;9.944;2023-03-31T10:26:00;5.28;;;3.28;;
17141;SDS011;32805;53.556;9.944;2023-03-31T10:28:30;5.18;;;2.83;;
17141;SDS011;32805;53.556;9.944;2023-03-31T10:31:00;3.92;;;2.63;;
17141;SDS011;32805;53.556;9.944;2023-03-31T10:33:30;4.10;;;2.65;;
17141;SDS011;32805;53.556;9.944;2023-03-31T10:36:00;5.75;;;2.75;;
17141;SDS011;32805;53.556;9.944;2023-03-31T10:38:35;7.18;;;3.45;;
17141;SDS011;32805;53.556;9.944;2023-03-31T10:41:05;5.43;;;3.20;;
17141;SDS011;32805;53.556;9.944;2023-03-31T10:43:35;4.55;;;2.70;;
17141;SDS011;32805;53.556;9.944;2023-03-31T10:46:06;5.22;;;3.15;;
17141;SDS011;32805;53.556;9.944;2023-03-31T10:48:35;5.57;;;3.15;;
17141;SDS011;32805;53.556;9.944;2023-03-31T10:51:10;6.85;;;2.78;;
17141;SDS011;32805;53.556;9.944;2023-03-31T10:53:43;5.78;;;3.05;;
17141;SDS011;32805;53.556;9.944;2023-03-31T10:56:16;5.50;;;2.67;;
17141;SDS011;32805;53.556;9.944;2023-03-31T10:58:55;6.57;;;3.00;;
17141;SDS011;32805;53.556;9.944;2023-03-31T11:01:39;5.35;;;2.92;;
17141;SDS011;32805;53.556;9.944;2023-03-31T11:04:28;5.07;;;3.38;;
17141;SDS011;32805;53.556;9.944;2023-03-31T11:07:07;4.50;;;3.10;;
17141;SDS011;32805;53.556;9.944;2023-03-31T11:09:47;3.85;;;2.60;;
17141;SDS011;32805;53.556;9.944;2023-03-31T11:12:20;3.90;;;2.20;;
17141;SDS011;32805;53.556;9.944;2023-03-31T11:14:58;5.05;;;2.80;;
17141;SDS011;32805;53.556;9.944;2023-03-31T11:17:43;5.90;;;2.55;;
17141;SDS011;32805;53.556;9.944;2023-03-31T11:20:37;6.53;;;2.35;;
17141;SDS011;32805;53.556;9.944;2023-03-31T11:23:25;4.75;;;2.90;;
17141;SDS011;32805;53.556;9.944;2023-03-31T11:26:48;4.13;;;2.50;;
17141;SDS011;32805;53.556;9.944;2023-03-31T11:29:25;4.28;;;2.53;;
17141;SDS011;32805;53.556;9.944;2023-03-31T11:32:06;7.40;;;2.50;;
17141;SDS011;32805;53.556;9.944;2023-03-31T11:34:57;4.07;;;2.17;;
17141;SDS011;32805;53.556;9.944;2023-03-31T11:37:36;3.97;;;2.22;;
17141;SDS011;32805;53.556;9.944;2023-03-31T11:40:30;4.32;;;2.22;;
17141;SDS011;32805;53.556;9.944;2023-03-31T11:43:09;3.95;;;2.40;;
17141;SDS011;32805;53.556;9.944;2023-03-31T11:45:43;4.97;;;2.42;;
17141;SDS011;32805;53.556;9.944;2023-03-31T11:48:16;2.58;;;2.30;;
17141;SDS011;32805;53.556;9.944;2023-03-31T11:50:48;3.55;;;2.03;;
17141;SDS011;32805;53.556;9.944;2023-03-31T11:53:17;4.53;;;2.35;;
17141;SDS011;32805;53.556;9.944;2023-03-31T11:55:49;5.10;;;1.88;;
17141;SDS011;32805;53.556;9.944;2023-03-31T11:58:21;5.65;;;2.17;;
17141;SDS011;32805;53.556;9.944;2023-03-31T12:00:56;2.35;;;1.65;;
17141;SDS011;32805;53.556;9.944;2023-03-31T12:03:31;4.45;;;2.03;;
17141;SDS011;32805;53.556;9.944;2023-03-31T12:06:08;4.20;;;2.15;;
17141;SDS011;32805;53.556;9.944;2023-03-31T12:08:46;3.60;;;2.17;;
17141;SDS011;32805;53.556;9.944;2023-03-31T12:11:23;3.53;;;2.00;;
17141;SDS011;32805;53.556;9.944;2023-03-31T12:13:57;2.85;;;2.05;;
17141;SDS011;32805;53.556;9.944;2023-03-31T12:16:36;5.22;;;1.92;;
17141;SDS011;32805;53.556;9.944;2023-03-31T12:19:07;4.93;;;2.40;;
17141;SDS011;32805;53.556;9.944;2023-03-31T12:21:40;4.82;;;1.95;;
17141;SDS011;32805;53.556;9.944;2023-03-31T12:24:12;3.83;;;2.33;;
17141;SDS011;32805;53.556;9.944;2023-03-31T12:26:41;3.60;;;2.20;;
17141;SDS011;32805;53.556;9.944;2023-03-31T12:29:23;3.08;;;2.22;;
17141;SDS011;32805;53.556;9.944;2023-03-31T12:31:56;3.95;;;2.38;;
17141;SDS011;32805;53.556;9.944;2023-03-31T12:34:27;4.35;;;2.83;;
17141;SDS011;32805;53.556;9.944;2023-03-31T12:37:00;4.03;;;2.45;;
17141;SDS011;32805;53.556;9.944;2023-03-31T12:39:39;4.32;;;2.90;;
17141;SDS011;32805;53.556;9.944;2023-03-31T12:45:19;3.95;;;3.20;;
17141;SDS011;32805;53.556;9.944;2023-03-31T12:48:05;4.38;;;3.17;;
17141;SDS011;32805;53.556;9.944;2023-03-31T12:51:08;6.13;;;3.15;;
17141;SDS011;32805;53.556;9.944;2023-03-31T12:53:46;5.00;;;3.17;;
17141;SDS011;32805;53.556;9.944;2023-03-31T12:56:26;3.80;;;2.83;;
17141;SDS011;32805;53.556;9.944;2023-03-31T12:58:53;5.85;;;3.22;;
17141;SDS011;32805;53.556;9.944;2023-03-31T13:02:10;3.95;;;3.13;;
17141;SDS011;32805;53.556;9.944;2023-03-31T13:04:45;3.75;;;2.80;;
17141;SDS011;32805;53.556;9.944;2023-03-31T13:10:22;4.07;;;3.05;;
17141;SDS011;32805;53.556;9.944;2023-03-31T13:12:57;3.20;;;2.90;;
17141;SDS011;32805;53.556;9.944;2023-03-31T13:15:31;4.72;;;2.83;;
17141;SDS011;32805;53.556;9.944;2023-03-31T13:18:04;3.95;;;2.90;;
17141;SDS011;32805;53.556;9.944;2023-03-31T13:20:34;7.55;;;3.40;;
17141;SDS011;32805;53.556;9.944;2023-03-31T13:23:04;3.80;;;2.92;;
17141;SDS011;32805;53.556;9.944;2023-03-31T13:25:43;3.47;;;2.80;;
17141;SDS011;32805;53.556;9.944;2023-03-31T13:28:13;6.13;;;3.35;;
17141;SDS011;32805;53.556;9.944;2023-03-31T13:30:58;5.28;;;3.67;;
17141;SDS011;32805;53.556;9.944;2023-03-31T13:33:42;4.93;;;3.40;;
17141;SDS011;32805;53.556;9.944;2023-03-31T13:36:18;3.67;;;3.30;;
17141;SDS011;32805;53.556;9.944;2023-03-31T13:39:07;4.95;;;3.08;;
17141;SDS011;32805;53.556;9.944;2023-03-31T13:41:48;5.30;;;3.00;;
17141;SDS011;32805;53.556;9.944;2023-03-31T13:44:33;3.72;;;2.80;;
17141;SDS011;32805;53.556;9.944;2023-03-31T13:47:32;5.63;;;2.90;;
17141;SDS011;32805;53.556;9.944;2023-03-31T13:50:38;2.65;;;2.45;;
17141;SDS011;32805;53.556;9.944;2023-03-31T13:53:16;5.32;;;3.28;;
17141;SDS011;32805;53.556;9.944;2023-03-31T13:56:08;4.00;;;3.20;;
17141;SDS011;32805;53.556;9.944;2023-03-31T13:58:57;3.00;;;2.70;;
17141;SDS011;32805;53.556;9.944;2023-03-31T14:01:49;3.88;;;2.63;;
17141;SDS011;32805;53.556;9.944;2023-03-31T14:07:29;2.80;;;2.40;;
17141;SDS011;32805;53.556;9.944;2023-03-31T14:10:00;4.10;;;2.72;;
17141;SDS011;32805;53.556;9.944;2023-03-31T14:12:30;4.22;;;2.50;;
17141;SDS011;32805;53.556;9.944;2023-03-31T14:14:59;2.40;;;2.20;;
17141;SDS011;32805;53.556;9.944;2023-03-31T14:17:27;3.20;;;2.05;;
17141;SDS011;32805;53.556;9.944;2023-03-31T14:20:02;4.07;;;1.90;;
17141;SDS011;32805;53.556;9.944;2023-03-31T14:22:45;3.13;;;2.00;;
17141;SDS011;32805;53.556;9.944;2023-03-31T14:25:18;2.17;;;1.42;;
17141;SDS011;32805;53.556;9.944;2023-03-31T14:27:57;2.65;;;1.90;;
17141;SDS011;32805;53.556;9.944;2023-03-31T14:30:34;2.53;;;1.73;;
17141;SDS011;32805;53.556;9.944;2023-03-31T14:33:12;4.05;;;2.50;;
17141;SDS011;32805;53.556;9.944;2023-03-31T14:35:51;4.32;;;1.83;;
17141;SDS011;32805;53.556;9.944;2023-03-31T14:38:26;3.25;;;2.30;;
17141;SDS011;32805;53.556;9.944;2023-03-31T14:40:55;2.85;;;2.20;;
17141;SDS011;32805;53.556;9.944;2023-03-31T14:43:26;2.95;;;2.08;;
17141;SDS011;32805;53.556;9.944;2023-03-31T14:45:56;2.40;;;1.83;;
17141;SDS011;32805;53.556;9.944;2023-03-31T14:48:25;3.03;;;2.08;;
17141;SDS011;32805;53.556;9.944;2023-03-31T14:50:55;2.35;;;2.05;;
17141;SDS011;32805;53.556;9.944;2023-03-31T14:53:25;2.65;;;2.20;;
17141;SDS011;32805;53.556;9.944;2023-03-31T14:55:56;3.90;;;2.00;;
17141;SDS011;32805;53.556;9.944;2023-03-31T14:58:31;1.85;;;1.50;;
17141;SDS011;32805;53.556;9.944;2023-03-31T15:01:06;4.05;;;2.70;;
17141;SDS011;32805;53.556;9.944;2023-03-31T15:03:37;2.90;;;2.20;;
17141;SDS011;32805;53.556;9.944;2023-03-31T15:06:07;3.97;;;2.30;;
17141;SDS011;32805;53.556;9.944;2023-03-31T15:08:38;5.15;;;3.00;;
17141;SDS011;32805;53.556;9.944;2023-03-31T15:11:07;3.38;;;2.42;;
17141;SDS011;32805;53.556;9.944;2023-03-31T15:13:40;2.28;;;1.92;;
17141;SDS011;32805;53.556;9.944;2023-03-31T15:16:30;3.67;;;1.80;;
17141;SDS011;32805;53.556;9.944;2023-03-31T15:19:03;2.03;;;1.60;;
17141;SDS011;32805;53.556;9.944;2023-03-31T15:21:35;2.13;;;1.90;;
17141;SDS011;32805;53.556;9.944;2023-03-31T15:24:06;4.28;;;2.03;;
17141;SDS011;32805;53.556;9.944;2023-03-31T15:26:34;5.18;;;2.00;;
17141;SDS011;32805;53.556;9.944;2023-03-31T15:29:07;2.00;;;1.60;;
17141;SDS011;32805;53.556;9.944;2023-03-31T15:31:38;4.40;;;1.60;;
17141;SDS011;32805;53.556;9.944;2023-03-31T15:34:11;1.60;;;1.40;;
17141;SDS011;32805;53.556;9.944;2023-03-31T15:36:41;2.92;;;1.85;;
17141;SDS011;32805;53.556;9.944;2023-03-31T15:39:10;2.50;;;1.52;;